sensor_id;sensor_type;location;lat;lon;timestamp;pressure;altitude;pressure_sealevel;temperature;humidity
14041;BME280;7095;51.388;6.196;2023-03-14T00:00:06;54674.25;;;-145.32;100.00
14041;BME280;7095;51.388;6.196;2023-03-14T00:02:36;54666.28;;;-145.32;100.00
14041;BME280;7095;51.388;6.196;2023-03-14T00:05:06;54652.38;;;-145.32;100.00
14041;BME280;7095;51.388;6.196;2023-03-14T00:07:35;54716.00;;;-145.32;100.00
14041;BME280;7095;51.388;6.196;2023-03-14T00:10:06;54741.88;;;-145.32;100.00
14041;BME280;7095;51.388;6.196;2023-03-14T00:12:35;54771.69;;;-145.32;100.00
14041;BME280;7095;51.388;6.196;2023-03-14T00:15:04;54813.47;;;-145.32;100.00
14041;BME280;7095;51.388;6.196;2023-03-14T00:17:35;54825.41;;;-145.32;100.00
14041;BME280;7095;51.388;6.196;2023-03-14T00:20:06;54811.47;;;-145.32;100.00
14041;BME280;7095;51.388;6.196;2023-03-14T00:22:38;54801.53;;;-145.32;100.00
14041;BME280;7095;51.388;6.196;2023-03-14T00:25:08;54875.13;;;-145.32;100.00
14041;BME280;7095;51.388;6.196;2023-03-14T00:27:37;54897.00;;;-145.32;100.00
14041;BME280;7095;51.388;6.196;2023-03-14T00:30:07;54992.47;;;-145.32;100.00
14041;BME280;7095;51.388;6.196;2023-03-14T00:32:37;55074.00;;;-145.32;100.00
14041;BME280;7095;51.388;6.196;2023-03-14T00:35:08;55191.38;;;-145.32;100.00
14041;BME280;7095;51.388;6.196;2023-03-14T00:37:36;55251.03;;;-145.32;100.00
14041;BME280;7095;51.388;6.196;2023-03-14T00:40:06;55344.53;;;-145.32;100.00
14041;BME280;7095;51.388;6.196;2023-03-14T00:42:35;55408.19;;;-145.32;100.00
14041;BME280;7095;51.388;6.196;2023-03-14T00:45:04;55471.84;;;-145.32;100.00
14041;BME280;7095;51.388;6.196;2023-03-14T00:47:34;55575.28;;;-145.32;100.00
14041;BME280;7095;51.388;6.196;2023-03-14T00:50:05;55684.69;;;-145.32;100.00
14041;BME280;7095;51.388;6.196;2023-03-14T00:52:34;55810.03;;;-145.32;100.00
14041;BME280;7095;51.388;6.196;2023-03-14T00:55:03;55883.63;;;-145.32;100.00
14041;BME280;7095;51.388;6.196;2023-03-14T00:57:31;55885.63;;;-145.32;100.00
14041;BME280;7095;51.388;6.196;2023-03-14T01:00:00;55873.69;;;-145.32;100.00
14041;BME280;7095;51.388;6.196;2023-03-14T01:02:31;55857.75;;;-145.32;100.00
14041;BME280;7095;51.388;6.196;2023-03-14T01:04:59;55887.59;;;-145.32;100.00
14041;BME280;7095;51.388;6.196;2023-03-14T01:07:29;55877.66;;;-145.32;100.00
14041;BME280;7095;51.388;6.196;2023-03-14T01:09:58;55899.53;;;-145.32;100.00
14041;BME280;7095;51.388;6.196;2023-03-14T01:12:27;55796.09;;;-145.32;100.00
14041;BME280;7095;51.388;6.196;2023-03-14T01:14:56;55696.63;;;-145.32;100.00
14041;BME280;7095;51.388;6.196;2023-03-14T01:17:24;55617.06;;;-145.32;100.00
14041;BME280;7095;51.388;6.196;2023-03-14T01:19:52;55583.22;;;-145.32;100.00
14041;BME280;7095;51.388;6.196;2023-03-14T01:22:21;55559.34;;;-145.32;100.00
14041;BME280;7095;51.388;6.196;2023-03-14T01:24:51;55501.66;;;-145.32;100.00
14041;BME280;7095;51.388;6.196;2023-03-14T01:27:20;55408.19;;;-145.32;100.00
14041;BME280;7095;51.388;6.196;2023-03-14T01:29:48;55380.34;;;-145.32;100.00
14041;BME280;7095;51.388;6.196;2023-03-14T01:32:17;55376.34;;;-145.32;100.00
14041;BME280;7095;51.388;6.196;2023-03-14T01:34:45;55414.16;;;-145.32;100.00
14041;BME280;7095;51.388;6.196;2023-03-14T01:37:14;55358.44;;;-145.32;100.00
14041;BME280;7095;51.388;6.196;2023-03-14T01:39:42;55346.50;;;-145.32;100.00
14041;BME280;7095;51.388;6.196;2023-03-14T01:42:12;55358.44;;;-145.32;100.00
14041;BME280;7095;51.388;6.196;2023-03-14T01:44:49;55302.75;;;-145.32;100.00
14041;BME280;7095;51.388;6.196;2023-03-14T01:47:19;55304.75;;;-145.32;100.00
14041;BME280;7095;51.388;6.196;2023-03-14T01:49:50;55340.56;;;-145.32;100.00
14041;BME280;7095;51.388;6.196;2023-03-14T01:52:25;55328.63;;;-145.32;100.00
14041;BME280;7095;51.388;6.196;2023-03-14T01:54:58;55336.56;;;-145.32;100.00
14041;BME280;7095;51.388;6.196;2023-03-14T01:57:31;55288.84;;;-145.32;100.00
14041;BME280;7095;51.388;6.196;2023-03-14T02:00:04;55318.66;;;-145.32;100.00
14041;BME280;7095;51.388;6.196;2023-03-14T02:02:41;55276.91;;;-145.32;100.00
14041;BME280;7095;51.388;6.196;2023-03-14T02:05:15;55360.44;;;-145.32;100.00
14041;BME280;7095;51.388;6.196;2023-03-14T02:07:52;55436.03;;;-145.32;100.00
14041;BME280;7095;51.388;6.196;2023-03-14T02:10:27;55445.97;;;-145.32;100.00
14041;BME280;7095;51.388;6.196;2023-03-14T02:13:02;55493.72;;;-145.32;100.00
14041;BME280;7095;51.388;6.196;2023-03-14T02:16:00;55603.13;;;-145.32;100.00
14041;BME280;7095;51.388;6.196;2023-03-14T02:18:41;55825.94;;;-145.32;100.00
14041;BME280;7095;51.388;6.196;2023-03-14T02:21:23;55903.53;;;-145.32;100.00
14041;BME280;7095;51.388;6.196;2023-03-14T02:23:59;56074.63;;;-145.32;100.00
14041;BME280;7095;51.388;6.196;2023-03-14T02:26:38;56243.75;;;-145.32;100.00
14041;BME280;7095;51.388;6.196;2023-03-14T02:29:10;56319.34;;;-145.32;100.00
14041;BME280;7095;51.388;6.196;2023-03-14T02:31:39;56480.53;;;-145.32;100.00
14041;BME280;7095;51.388;6.196;2023-03-14T02:34:07;56679.50;;;-145.32;100.00
14041;BME280;7095;51.388;6.196;2023-03-14T02:36:37;56775.03;;;-145.32;100.00
14041;BME280;7095;51.388;6.196;2023-03-14T02:39:08;56816.81;;;-145.32;100.00
14041;BME280;7095;51.388;6.196;2023-03-14T02:41:43;56850.66;;;-145.32;100.00
14041;BME280;7095;51.388;6.196;2023-03-14T02:44:13;56820.78;;;-145.32;100.00
14041;BME280;7095;51.388;6.196;2023-03-14T02:46:42;56852.63;;;-145.32;100.00
14041;BME280;7095;51.388;6.196;2023-03-14T02:49:13;56814.81;;;-145.32;100.00
14041;BME280;7095;51.388;6.196;2023-03-14T02:51:43;56968.06;;;-145.32;100.00
14041;BME280;7095;51.388;6.196;2023-03-14T02:54:14;57003.88;;;-145.32;100.00
14041;BME280;7095;51.388;6.196;2023-03-14T02:56:43;57053.63;;;-145.32;100.00
14041;BME280;7095;51.388;6.196;2023-03-14T02:59:14;57111.34;;;-145.32;100.00
14041;BME280;7095;51.388;6.196;2023-03-14T03:01:49;57135.22;;;-145.32;100.00
14041;BME280;7095;51.388;6.196;2023-03-14T03:04:17;57151.16;;;-145.32;100.00
14041;BME280;7095;51.388;6.196;2023-03-14T03:06:46;57119.31;;;-145.32;100.00
14041;BME280;7095;51.388;6.196;2023-03-14T03:09:15;56993.94;;;-145.32;100.00
14041;BME280;7095;51.388;6.196;2023-03-14T03:11:44;56920.28;;;-145.32;100.00
14041;BME280;7095;51.388;6.196;2023-03-14T03:14:19;56834.72;;;-145.32;100.00
14041;BME280;7095;51.388;6.196;2023-03-14T03:16:47;56798.91;;;-145.32;100.00
14041;BME280;7095;51.388;6.196;2023-03-14T03:19:16;56605.88;;;-145.32;100.00
14041;BME280;7095;51.388;6.196;2023-03-14T03:21:44;56540.22;;;-145.32;100.00
14041;BME280;7095;51.388;6.196;2023-03-14T03:24:13;56490.47;;;-145.32;100.00
14041;BME280;7095;51.388;6.196;2023-03-14T03:26:41;56351.19;;;-145.32;100.00
14041;BME280;7095;51.388;6.196;2023-03-14T03:29:10;56176.09;;;-145.32;100.00
14041;BME280;7095;51.388;6.196;2023-03-14T03:31:40;56136.28;;;-145.32;100.00
14041;BME280;7095;51.388;6.196;2023-03-14T03:34:09;56120.38;;;-145.32;100.00
14041;BME280;7095;51.388;6.196;2023-03-14T03:36:37;56020.91;;;-145.32;100.00
14041;BME280;7095;51.388;6.196;2023-03-14T03:39:06;56012.94;;;-145.32;100.00
14041;BME280;7095;51.388;6.196;2023-03-14T03:41:34;56001.00;;;-145.32;100.00
14041;BME280;7095;51.388;6.196;2023-03-14T03:44:03;55941.31;;;-145.32;100.00
14041;BME280;7095;51.388;6.196;2023-03-14T03:46:32;55943.31;;;-145.32;100.00
14041;BME280;7095;51.388;6.196;2023-03-14T03:49:02;55762.28;;;-145.32;100.00
14041;BME280;7095;51.388;6.196;2023-03-14T03:51:31;55754.31;;;-145.32;100.00
14041;BME280;7095;51.388;6.196;2023-03-14T03:53:59;55714.53;;;-145.32;100.00
14041;BME280;7095;51.388;6.196;2023-03-14T03:56:31;55694.63;;;-145.32;100.00
14041;BME280;7095;51.388;6.196;2023-03-14T03:59:00;55748.34;;;-145.32;100.00
14041;BME280;7095;51.388;6.196;2023-03-14T04:01:28;55806.03;;;-145.32;100.00
14041;BME280;7095;51.388;6.196;2023-03-14T04:03:58;55929.38;;;-145.32;100.00
14041;BME280;7095;51.388;6.196;2023-03-14T04:06:29;56114.41;;;-145.32;100.00
14041;BME280;7095;51.388;6.196;2023-03-14T04:08:59;56408.88;;;-145.32;100.00
14041;BME280;7095;51.388;6.196;2023-03-14T04:11:35;56906.38;;;-145.32;100.00
14041;BME280;7095;51.388;6.196;2023-03-14T04:14:30;57632.81;;;-145.32;100.00
14041;BME280;7095;51.388;6.196;2023-03-14T04:17:09;58578.44;;;-145.32;100.00
14041;BME280;7095;51.388;6.196;2023-03-14T04:19:38;59781.22;;;-145.32;100.00
14041;BME280;7095;51.388;6.196;2023-03-14T04:22:07;61502.53;;;-145.32;100.00
14041;BME280;7095;51.388;6.196;2023-03-14T04:24:45;64770.22;;;-145.32;100.00
14041;BME280;7095;51.388;6.196;2023-03-14T04:27:14;67527.97;;;-145.32;100.00
14041;BME280;7095;51.388;6.196;2023-03-14T04:29:44;69908.38;;;-145.32;100.00
14041;BME280;7095;51.388;6.196;2023-03-14T04:32:15;72722.25;;;-145.32;100.00
14041;BME280;7095;51.388;6.196;2023-03-14T04:34:43;76563.09;;;-145.32;100.00
14041;BME280;7095;51.388;6.196;2023-03-14T04:37:13;79895.28;;;-145.32;100.00
14041;BME280;7095;51.388;6.196;2023-03-14T04:39:43;83487.44;;;-145.32;100.00
14041;BME280;7095;51.388;6.196;2023-03-14T04:42:19;87597.34;;;-145.32;100.00
14041;BME280;7095;51.388;6.196;2023-03-14T04:44:48;89911.31;;;-145.32;100.00
14041;BME280;7095;51.388;6.196;2023-03-14T04:47:20;91454.81;;;-145.32;100.00
14041;BME280;7095;51.388;6.196;2023-03-14T04:49:50;93513.91;;;-145.32;100.00
14041;BME280;7095;51.388;6.196;2023-03-14T04:52:20;94286.38;;;-145.32;100.00
14041;BME280;7095;51.388;6.196;2023-03-14T04:54:48;95574.19;;;-145.32;100.00
14041;BME280;7095;51.388;6.196;2023-03-14T04:57:18;95059.00;;;-145.32;100.00
14041;BME280;7095;51.388;6.196;2023-03-14T04:59:47;97377.97;;;-145.32;100.00
14041;BME280;7095;51.388;6.196;2023-03-14T05:02:37;98666.94;;;-145.32;100.00
14041;BME280;7095;51.388;6.196;2023-03-14T05:05:27;100472.31;;;-145.32;100.00
14041;BME280;7095;51.388;6.196;2023-03-14T05:08:03;101246.34;;;-145.32;100.00
14041;BME280;7095;51.388;6.196;2023-03-14T05:10:37;101246.34;;;-145.32;100.00
14041;BME280;7095;51.388;6.196;2023-03-14T05:13:14;101246.34;;;-145.32;100.00
14041;BME280;7095;51.388;6.196;2023-03-14T05:16:04;102794.91;;;-145.32;100.00
14041;BME280;7095;51.388;6.196;2023-03-14T05:18:46;103311.25;;;-145.32;100.00
14041;BME280;7095;51.388;6.196;2023-03-14T05:21:33;104602.44;;;-145.32;100.00
14041;BME280;7095;51.388;6.196;2023-03-14T05:24:14;104602.44;;;-145.32;100.00
14041;BME280;7095;51.388;6.196;2023-03-14T05:27:01;106410.88;;;-145.32;100.00
14041;BME280;7095;51.388;6.196;2023-03-14T05:29:47;106669.31;;;-145.32;100.00
14041;BME280;7095;51.388;6.196;2023-03-14T05:32:38;107444.69;;;-145.32;100.00
14041;BME280;7095;51.388;6.196;2023-03-14T05:35:39;107961.72;;;-145.32;100.00
14041;BME280;7095;51.388;6.196;2023-03-14T05:38:30;108220.28;;;-145.32;100.00
14041;BME280;7095;51.388;6.196;2023-03-14T05:41:26;108478.84;;;-145.32;100.00
14041;BME280;7095;51.388;6.196;2023-03-14T05:44:12;109513.28;;;-145.32;100.00
14041;BME280;7095;51.388;6.196;2023-03-14T05:47:01;109254.63;;;-145.32;100.00
14041;BME280;7095;51.388;6.196;2023-03-14T05:49:43;109513.28;;;-145.32;100.00
14041;BME280;7095;51.388;6.196;2023-03-14T05:52:32;109771.94;;;-145.32;100.00
14041;BME280;7095;51.388;6.196;2023-03-14T05:55:13;110289.28;;;-145.32;100.00
14041;BME280;7095;51.388;6.196;2023-03-14T05:57:54;110806.75;;;-145.32;100.00
14041;BME280;7095;51.388;6.196;2023-03-14T06:00:43;111065.50;;;-145.32;100.00
14041;BME280;7095;51.388;6.196;2023-03-14T06:03:30;111065.50;;;-145.32;100.00
14041;BME280;7095;51.388;6.196;2023-03-14T06:05:58;111065.50;;;-145.32;100.00
14041;BME280;7095;51.388;6.196;2023-03-14T06:08:27;110806.75;;;-145.32;100.00
14041;BME280;7095;51.388;6.196;2023-03-14T06:10:57;111065.50;;;-145.32;100.00
14041;BME280;7095;51.388;6.196;2023-03-14T06:13:31;111583.06;;;-145.32;100.00
14041;BME280;7095;51.388;6.196;2023-03-14T06:15:59;111583.06;;;-145.32;100.00
14041;BME280;7095;51.388;6.196;2023-03-14T06:18:28;111583.06;;;-145.32;100.00
14041;BME280;7095;51.388;6.196;2023-03-14T06:20:56;111583.06;;;-145.32;100.00
14041;BME280;7095;51.388;6.196;2023-03-14T06:23:26;111841.88;;;-145.32;100.00
14041;BME280;7095;51.388;6.196;2023-03-14T06:25:58;112100.69;;;-145.32;100.00
14041;BME280;7095;51.388;6.196;2023-03-14T06:28:28;112100.69;;;-145.32;100.00
14041;BME280;7095;51.388;6.196;2023-03-14T06:31:00;112100.69;;;-145.32;100.00
14041;BME280;7095;51.388;6.196;2023-03-14T06:33:35;112359.53;;;-145.32;100.00
14041;BME280;7095;51.388;6.196;2023-03-14T06:36:05;112359.53;;;-145.32;100.00
14041;BME280;7095;51.388;6.196;2023-03-14T06:38:37;112618.41;;;-145.32;100.00
14041;BME280;7095;51.388;6.196;2023-03-14T06:41:06;112618.41;;;-145.32;100.00
14041;BME280;7095;51.388;6.196;2023-03-14T06:43:39;112877.31;;;-145.32;100.00
14041;BME280;7095;51.388;6.196;2023-03-14T06:46:09;112877.31;;;-145.32;100.00
14041;BME280;7095;51.388;6.196;2023-03-14T06:48:40;113136.22;;;-145.32;100.00
14041;BME280;7095;51.388;6.196;2023-03-14T06:51:09;113136.22;;;-145.32;100.00
14041;BME280;7095;51.388;6.196;2023-03-14T06:53:38;113136.22;;;-145.32;100.00
14041;BME280;7095;51.388;6.196;2023-03-14T06:56:07;112877.31;;;-145.32;100.00
14041;BME280;7095;51.388;6.196;2023-03-14T06:58:36;112877.31;;;-145.32;100.00
14041;BME280;7095;51.388;6.196;2023-03-14T07:01:17;112877.31;;;-145.32;100.00
14041;BME280;7095;51.388;6.196;2023-03-14T07:03:49;112618.41;;;-145.32;100.00
14041;BME280;7095;51.388;6.196;2023-03-14T07:06:18;112618.41;;;-145.32;100.00
14041;BME280;7095;51.388;6.196;2023-03-14T07:08:47;112877.31;;;-145.32;100.00
14041;BME280;7095;51.388;6.196;2023-03-14T07:11:17;112877.31;;;-145.32;100.00
14041;BME280;7095;51.388;6.196;2023-03-14T07:13:45;112618.41;;;-145.32;100.00
14041;BME280;7095;51.388;6.196;2023-03-14T07:16:15;112618.41;;;-145.32;100.00
14041;BME280;7095;51.388;6.196;2023-03-14T07:18:44;112877.31;;;-145.32;100.00
14041;BME280;7095;51.388;6.196;2023-03-14T07:21:14;113136.22;;;-145.32;100.00
14041;BME280;7095;51.388;6.196;2023-03-14T07:23:43;112877.31;;;-145.32;100.00
14041;BME280;7095;51.388;6.196;2023-03-14T07:26:12;113136.22;;;-145.32;100.00
14041;BME280;7095;51.388;6.196;2023-03-14T07:28:46;112877.31;;;-145.32;100.00
14041;BME280;7095;51.388;6.196;2023-03-14T07:31:19;113136.22;;;-145.32;100.00
14041;BME280;7095;51.388;6.196;2023-03-14T07:33:48;113654.06;;;-145.32;100.00
14041;BME280;7095;51.388;6.196;2023-03-14T07:36:17;113136.22;;;-145.32;100.00
14041;BME280;7095;51.388;6.196;2023-03-14T07:38:47;113395.13;;;-145.32;100.00
14041;BME280;7095;51.388;6.196;2023-03-14T07:41:33;113136.22;;;-145.32;100.00
14041;BME280;7095;51.388;6.196;2023-03-14T07:44:40;112877.31;;;-145.32;100.00
14041;BME280;7095;51.388;6.196;2023-03-14T07:47:12;111841.88;;;-145.32;100.00
14041;BME280;7095;51.388;6.196;2023-03-14T07:49:40;112100.69;;;-145.32;100.00
14041;BME280;7095;51.388;6.196;2023-03-14T07:52:08;111583.06;;;-145.32;100.00
14041;BME280;7095;51.388;6.196;2023-03-14T07:54:37;111583.06;;;-145.32;100.00
14041;BME280;7095;51.388;6.196;2023-03-14T07:57:05;111583.06;;;-145.32;100.00
14041;BME280;7095;51.388;6.196;2023-03-14T07:59:33;111583.06;;;-145.32;100.00
14041;BME280;7095;51.388;6.196;2023-03-14T08:02:02;111841.88;;;-145.32;100.00
14041;BME280;7095;51.388;6.196;2023-03-14T08:04:34;112359.53;;;-145.32;100.00
14041;BME280;7095;51.388;6.196;2023-03-14T08:07:02;112618.41;;;-145.32;100.00
14041;BME280;7095;51.388;6.196;2023-03-14T08:09:31;111583.06;;;-145.32;100.00
14041;BME280;7095;51.388;6.196;2023-03-14T08:11:59;111841.88;;;-145.32;100.00
14041;BME280;7095;51.388;6.196;2023-03-14T08:14:27;112100.69;;;-145.32;100.00
14041;BME280;7095;51.388;6.196;2023-03-14T08:16:57;112618.41;;;-145.32;100.00
14041;BME280;7095;51.388;6.196;2023-03-14T08:19:26;112618.41;;;-145.32;100.00
14041;BME280;7095;51.388;6.196;2023-03-14T08:21:56;112359.53;;;-145.32;100.00
14041;BME280;7095;51.388;6.196;2023-03-14T08:24:24;112100.69;;;-145.32;100.00
14041;BME280;7095;51.388;6.196;2023-03-14T08:26:53;111841.88;;;-145.32;100.00
14041;BME280;7095;51.388;6.196;2023-03-14T08:29:21;111324.28;;;-145.32;100.00
14041;BME280;7095;51.388;6.196;2023-03-14T08:31:50;111324.28;;;-145.32;100.00
14041;BME280;7095;51.388;6.196;2023-03-14T08:34:18;111065.50;;;-145.32;100.00
14041;BME280;7095;51.388;6.196;2023-03-14T08:36:57;101762.47;;;-145.32;100.00
14041;BME280;7095;51.388;6.196;2023-03-14T08:39:25;98151.31;;;-145.32;100.00
14041;BME280;7095;51.388;6.196;2023-03-14T08:41:54;101762.47;;;-145.32;100.00
14041;BME280;7095;51.388;6.196;2023-03-14T08:44:22;102536.75;;;-145.32;100.00
14041;BME280;7095;51.388;6.196;2023-03-14T08:46:51;101246.34;;;-145.32;100.00
14041;BME280;7095;51.388;6.196;2023-03-14T08:49:19;100472.31;;;-145.32;100.00
14041;BME280;7095;51.388;6.196;2023-03-14T08:51:48;102020.53;;;-145.32;100.00
14041;BME280;7095;51.388;6.196;2023-03-14T08:54:18;101504.38;;;-145.32;100.00
14041;BME280;7095;51.388;6.196;2023-03-14T08:56:46;100988.31;;;-145.32;100.00
14041;BME280;7095;51.388;6.196;2023-03-14T08:59:15;100214.34;;;-145.32;100.00
14041;BME280;7095;51.388;6.196;2023-03-14T09:01:44;100730.31;;;-145.32;100.00
14041;BME280;7095;51.388;6.196;2023-03-14T09:04:12;100214.34;;;-145.32;100.00
14041;BME280;7095;51.388;6.196;2023-03-14T09:06:41;101504.38;;;-145.32;100.00
14041;BME280;7095;51.388;6.196;2023-03-14T09:09:10;101504.38;;;-145.32;100.00
14041;BME280;7095;51.388;6.196;2023-03-14T09:11:41;100730.31;;;-145.32;100.00
14041;BME280;7095;51.388;6.196;2023-03-14T09:14:10;99956.41;;;-145.32;100.00
14041;BME280;7095;51.388;6.196;2023-03-14T09:16:38;100214.34;;;-145.32;100.00
14041;BME280;7095;51.388;6.196;2023-03-14T09:19:07;99698.47;;;-145.32;100.00
14041;BME280;7095;51.388;6.196;2023-03-14T09:21:36;99440.56;;;-145.32;100.00
14041;BME280;7095;51.388;6.196;2023-03-14T09:24:06;99440.56;;;-145.32;100.00
14041;BME280;7095;51.388;6.196;2023-03-14T09:26:34;98409.13;;;-145.32;100.00
14041;BME280;7095;51.388;6.196;2023-03-14T09:29:04;97120.22;;;-145.32;100.00
14041;BME280;7095;51.388;6.196;2023-03-14T09:31:33;97120.22;;;-145.32;100.00
14041;BME280;7095;51.388;6.196;2023-03-14T09:34:02;94801.44;;;-145.32;100.00
14041;BME280;7095;51.388;6.196;2023-03-14T09:36:31;92226.81;;;-145.32;100.00
14041;BME280;7095;51.388;6.196;2023-03-14T09:38:59;87854.38;;;-145.32;100.00
14041;BME280;7095;51.388;6.196;2023-03-14T09:41:30;86055.56;;;-145.32;100.00
14041;BME280;7095;51.388;6.196;2023-03-14T09:44:04;86826.34;;;-145.32;100.00
14041;BME280;7095;51.388;6.196;2023-03-14T09:46:36;83230.72;;;-145.32;100.00
14041;BME280;7095;51.388;6.196;2023-03-14T09:49:11;85028.06;;;-145.32;100.00
14041;BME280;7095;51.388;6.196;2023-03-14T09:51:41;90168.50;;;-145.32;100.00
14041;BME280;7095;51.388;6.196;2023-03-14T09:54:23;94543.91;;;-145.32;100.00
14041;BME280;7095;51.388;6.196;2023-03-14T09:56:55;98924.81;;;-145.32;100.00
14041;BME280;7095;51.388;6.196;2023-03-14T09:59:26;101246.34;;;-145.32;100.00
14041;BME280;7095;51.388;6.196;2023-03-14T10:01:56;101504.38;;;-145.32;100.00
14041;BME280;7095;51.388;6.196;2023-03-14T10:04:26;97120.22;;;-145.32;100.00
14041;BME280;7095;51.388;6.196;2023-03-14T10:06:57;98409.13;;;-145.32;100.00
14041;BME280;7095;51.388;6.196;2023-03-14T10:09:25;98409.13;;;-145.32;100.00
14041;BME280;7095;51.388;6.196;2023-03-14T10:11:55;98924.81;;;-145.32;100.00
14041;BME280;7095;51.388;6.196;2023-03-14T10:14:34;95831.81;;;-145.32;100.00
14041;BME280;7095;51.388;6.196;2023-03-14T10:17:07;89911.31;;;-145.32;100.00
14041;BME280;7095;51.388;6.196;2023-03-14T10:19:37;91454.81;;;-145.32;100.00
14041;BME280;7095;51.388;6.196;2023-03-14T10:22:10;92999.00;;;-145.32;100.00
14041;BME280;7095;51.388;6.196;2023-03-14T10:24:45;94286.38;;;-145.32;100.00
14041;BME280;7095;51.388;6.196;2023-03-14T10:27:19;92484.19;;;-145.32;100.00
14041;BME280;7095;51.388;6.196;2023-03-14T10:29:54;93513.91;;;-145.32;100.00
14041;BME280;7095;51.388;6.196;2023-03-14T10:32:32;92999.00;;;-145.32;100.00
14041;BME280;7095;51.388;6.196;2023-03-14T10:35:08;93771.38;;;-145.32;100.00
14041;BME280;7095;51.388;6.196;2023-03-14T10:37:49;91969.47;;;-145.32;100.00
14041;BME280;7095;51.388;6.196;2023-03-14T10:40:19;91454.81;;;-145.32;100.00
14041;BME280;7095;51.388;6.196;2023-03-14T10:42:50;89654.13;;;-145.32;100.00
14041;BME280;7095;51.388;6.196;2023-03-14T10:45:34;88625.56;;;-145.32;100.00
14041;BME280;7095;51.388;6.196;2023-03-14T10:48:19;88882.69;;;-145.32;100.00
14041;BME280;7095;51.388;6.196;2023-03-14T10:50:50;87597.34;;;-145.32;100.00
14041;BME280;7095;51.388;6.196;2023-03-14T10:53:22;88625.56;;;-145.32;100.00
14041;BME280;7095;51.388;6.196;2023-03-14T10:55:55;83487.44;;;-145.32;100.00
14041;BME280;7095;51.388;6.196;2023-03-14T10:58:26;81177.78;;;-145.32;100.00
14041;BME280;7095;51.388;6.196;2023-03-14T11:01:13;74770.16;;;-145.32;100.00
14041;BME280;7095;51.388;6.196;2023-03-14T11:03:52;70579.66;;;-145.32;100.00
14041;BME280;7095;51.388;6.196;2023-03-14T11:06:29;78356.94;;;-145.32;100.00
14041;BME280;7095;51.388;6.196;2023-03-14T11:09:07;72210.47;;;-145.32;100.00
14041;BME280;7095;51.388;6.196;2023-03-14T11:11:41;65689.88;;;-145.32;100.00
14041;BME280;7095;51.388;6.196;2023-03-14T11:14:20;59946.53;;;-145.32;100.00
14041;BME280;7095;51.388;6.196;2023-03-14T11:16:59;58843.25;;;-145.32;100.00
14041;BME280;7095;51.388;6.196;2023-03-14T11:19:48;57266.59;;;-145.32;100.00
14041;BME280;7095;51.388;6.196;2023-03-14T11:22:21;57374.06;;;-145.32;100.00
14041;BME280;7095;51.388;6.196;2023-03-14T11:25:02;56603.88;;;-145.32;100.00
14041;BME280;7095;51.388;6.196;2023-03-14T11:27:42;56705.38;;;-145.32;100.00
14041;BME280;7095;51.388;6.196;2023-03-14T11:30:18;56484.50;;;-145.32;100.00
14041;BME280;7095;51.388;6.196;2023-03-14T11:32:55;56385.00;;;-145.32;100.00
14041;BME280;7095;51.388;6.196;2023-03-14T11:35:30;56132.31;;;-145.32;100.00
14041;BME280;7095;51.388;6.196;2023-03-14T11:38:18;56217.88;;;-145.32;100.00
14041;BME280;7095;51.388;6.196;2023-03-14T11:40:48;55921.44;;;-145.32;100.00
14041;BME280;7095;51.388;6.196;2023-03-14T11:43:20;55344.53;;;-145.32;100.00
14041;BME280;7095;51.388;6.196;2023-03-14T11:45:54;54859.22;;;-145.32;100.00
14041;BME280;7095;51.388;6.196;2023-03-14T11:48:31;54731.94;;;-145.32;100.00
14041;BME280;7095;51.388;6.196;2023-03-14T11:51:09;54696.13;;;-145.32;100.00
14041;BME280;7095;51.388;6.196;2023-03-14T11:53:47;54564.88;;;-145.32;100.00
14041;BME280;7095;51.388;6.196;2023-03-14T11:56:25;54541.00;;;-145.32;100.00
14041;BME280;7095;51.388;6.196;2023-03-14T11:58:59;54548.97;;;-145.32;100.00
14041;BME280;7095;51.388;6.196;2023-03-14T12:01:44;54606.63;;;-145.32;100.00
14041;BME280;7095;51.388;6.196;2023-03-14T12:04:25;54475.38;;;-145.32;100.00
14041;BME280;7095;51.388;6.196;2023-03-14T12:07:02;54375.94;;;-145.32;100.00
14041;BME280;7095;51.388;6.196;2023-03-14T12:09:31;54336.19;;;-145.32;100.00
14041;BME280;7095;51.388;6.196;2023-03-14T12:12:03;54274.53;;;-145.32;100.00
14041;BME280;7095;51.388;6.196;2023-03-14T12:14:34;54270.56;;;-145.32;100.00
14041;BME280;7095;51.388;6.196;2023-03-14T12:17:05;54322.25;;;-145.32;100.00
14041;BME280;7095;51.388;6.196;2023-03-14T12:19:37;54360.03;;;-145.32;100.00
14041;BME280;7095;51.388;6.196;2023-03-14T12:22:27;54465.44;;;-145.32;100.00
14041;BME280;7095;51.388;6.196;2023-03-14T12:25:15;54544.97;;;-145.32;100.00
14041;BME280;7095;51.388;6.196;2023-03-14T12:28:19;54622.53;;;-145.32;100.00
14041;BME280;7095;51.388;6.196;2023-03-14T12:30:49;54839.31;;;-145.32;100.00
14041;BME280;7095;51.388;6.196;2023-03-14T12:33:27;54986.50;;;-145.32;100.00
14041;BME280;7095;51.388;6.196;2023-03-14T12:36:12;55125.72;;;-145.32;100.00
14041;BME280;7095;51.388;6.196;2023-03-14T12:41:42;55780.19;;;-145.32;100.00
14041;BME280;7095;51.388;6.196;2023-03-14T12:44:38;56048.75;;;-145.32;100.00
14041;BME280;7095;51.388;6.196;2023-03-14T12:50:15;56291.50;;;-145.32;100.00
14041;BME280;7095;51.388;6.196;2023-03-14T12:53:10;55593.19;;;-145.32;100.00
14041;BME280;7095;51.388;6.196;2023-03-14T12:55:51;55951.28;;;-145.32;100.00
14041;BME280;7095;51.388;6.196;2023-03-14T12:58:28;55609.09;;;-145.32;100.00
14041;BME280;7095;51.388;6.196;2023-03-14T13:01:01;55495.69;;;-145.32;100.00
14041;BME280;7095;51.388;6.196;2023-03-14T13:03:38;55589.19;;;-145.32;100.00
14041;BME280;7095;51.388;6.196;2023-03-14T13:06:09;55768.25;;;-145.32;100.00
14041;BME280;7095;51.388;6.196;2023-03-14T13:08:41;55837.88;;;-145.32;100.00
14041;BME280;7095;51.388;6.196;2023-03-14T13:11:13;55784.16;;;-145.32;100.00
14041;BME280;7095;51.388;6.196;2023-03-14T13:13:46;55326.63;;;-145.32;100.00